LiveATC.Net - Listen to live air traffic control over the Internet!

Find LiveATC Audio Streams


Airport/ARTCC Code

Frequency Search
(e.g., 124.400, 128.75)
Site-wide search
 


Browse LiveATC Feeds
Top 50 LiveATC Feeds
LiveATC Feed Map
Bad Weather Areas

LiveATC FAQ
Offer LiveATC feed
Contact LiveATC.net
Press Inquiries

LiveATC on iPhone
LiveATC on Android

Windows Phone
Windows 8/10

LiveATC Mobile
(Mobile browser)

ATC Audio Archives
Interesting Recordings

LiveATC Forums

Home Page
About LiveATC.net
Make a Donation
Terms of Use
Privacy Policy

Canadian Air Freqs

AIRMETs/SIGMETs

FAA Airport Status
Nat'l Airspace Status
Arrival Demand Charts


Server Software By:
Icecast.org
Liquidsoap


Current Potentially Bad Weather Airports
(updated every 30 minutes - sorted alphabetically by ICAO code)



This page lists LiveATC.net airport areas that may be interesting to listen to because of challenging flying (weather) conditions. Challenging weather conditions include low ceilings, limited visibility, high or gusty winds, or thunderstorms.

Updated: Sun Jun 16 13:40:01 UTC 2019
Click on airport name to go to that airport area's feeds.

CYQI/CZQM CTAF/FIC/Center Yarmouth Airport (Yarmouth, CA-NS)
WX MAP UNAVAILABLENearest METAR:
CYQI 161300Z 25013KT 2SM -RA BR OVC002 12/12 A2992 RMK SF8 SLP135
CYYT Gnd/Twr/Gander Center St. John's International Airport (St. John's, CA-NL)
WX MAP UNAVAILABLENearest METAR:
CYYT 161300Z 08003KT 040V160 15SM OVC005 07/07 A3003 RMK SF8 SLP177
ENOR Sector 8 Moss Airport - Rygge (Moss, Norway)
WX MAP UNAVAILABLENearest METAR:
ENRY 161320Z AUTO 19010KT 9999NDV OVC007/// 15/14 Q1015
ENTO Tower/App Sandefjord Airport - Torp (Sandefjord, Norway)
WX MAP UNAVAILABLENearest METAR:
ENTO 161320Z 20009KT 9999 OVC006 15/15 Q1014 TEMPO BKN004
EPGD Tower/Approach Gdansk Lech Walesa Airport (Gdansk, Poland)
WX MAP UNAVAILABLENearest METAR:
EPGD 161300Z 27015KT 9999 SCT006 OVC007 16/14 Q1016
EPKT Del/Twr/App Katowice International Airport (Katowice, Poland)
WX MAP UNAVAILABLENearest METAR:
EPKT 161300Z 32005KT 9999 FEW002 SCT034CB 21/18 Q1018 RETSRA
3CK/KBUU CTAF Burlington Municipal Airport (Burlington, US-WI)
kbuuNearest METAR:
KBUU 161315Z AUTO 04008G14KT 7SM OVC004 12/12 A2983 RMK AO2 T01170117
KADS Tower Addison Airport (Dallas, US-TX)
kadsNearest METAR:
KADS 161247Z 11008KT 10SM BKN040 OVC048 20/19 A2990 RMK LTG DSNT E AND SE
KAPC Del/Gnd Napa County Airport (Napa, US-CA)
kapcNearest METAR:
KAPC 161254Z AUTO 30005KT 10SM OVC007 12/11 A2991 RMK AO2 SLP118 T01170106
KARB Gnd/Twr Ann Arbor Municipal Airport (Ann Arbor, US-MI)
karbNearest METAR:
KARB 161325Z 06007KT 2SM -RA BR OVC006 13/13 A2983 RMK AO2 P0006 T01330128
KARR Tower Aurora Municipal Airport (Chicago/Aurora, US-IL)
karrNearest METAR:
KARR 161324Z 03004KT 1SM BR OVC003 16/15 A2980 RMK AO2 P0001 T01560150
KAWO CTAF/Clearance Arlington Municipal Airport (Arlington, US-WA)
kawoNearest METAR:
KAWO 161256Z AUTO 34006KT 10SM OVC008 12/11 A3008 RMK AO2 SLP191 T01220106
KNEL/KWRI/ZNY Lakehurst Maxfield Field Joint Base McGuire (Lakehurst, US-NJ)
kwriNearest METAR:
KWRI 161256Z AUTO 23013KT 10SM FEW190 24/17 A2989 RMK AO2 SLP121 T02390167 RVRNO VISNO RWY06 $
KBMG Twr/App Monroe County Airport (Bloomington, US-IN)
kbmgNearest METAR:
KBMG 161253Z 18007KT 10SM VCTS -RA FEW024 BKN032 OVC080 19/19 A2986 RMK AO2 LTG DSNT SE-SW RAB47 SLP107 TS SW MOV E P0000 T01940189
KBMI Gnd/Twr/App/Dep Central Illinois Regional Airport at Bloomington-Normal (Bloomington/Normal, US-IL)
kbmiNearest METAR:
KBMI 161256Z 28007KT 10SM OVC005 19/18 A2982 RMK AO2 SLP091 T01890178
KBNW CTAF Boone Municipal Airport (Boone, US-IA)
kbnwNearest METAR:
KBNW 152155Z AUTO 02015KT 1/4SM +RA OVC003 19/18 A2973 RMK AO2 P0040
KBOK CTAF Brookings Airport (Brookings, US-OR)
kbokNearest METAR:
KBOK 161326Z AUTO VRB03KT 1/4SM -RA FG OVC003 10/09 A2995 RMK AO2 P0000
KBTL/KAZO Gnd/Twr/App Kalamazoo/Battle Creek International Airport (Kalamazoo, US-MI)
kazoNearest METAR:
KAZO 161253Z 04006KT 10SM -RA OVC005 16/14 A2982 RMK AO2 SLP097 P0004 T01560144
KCCR Gnd/Twr Buchanan Field Airport (Concord, US-CA)
kccrNearest METAR:
KCCR 161253Z AUTO 19011KT 10SM OVC009 13/09 A2990 RMK AO2 SLP110 T01330094
KCFD CTAF/App Coulter Field Airport (Bryan, US-TX)
kcfdNearest METAR:
KCFD 161315Z AUTO 16010G17KT 10SM BKN015 BKN020 28/26 A2990 RMK AO2 LTG DSNT N AND NE T02770262
KCGF Tower Cuyahoga County Airport (Cleveland, US-OH)
kcgfNearest METAR:
KCGF 161245Z 30003KT 1/8SM FG VV000 18/17 A2983
KCLE App/Dep Cleveland-Hopkins International Airport (Cleveland, US-OH)
kcleNearest METAR:
KCLE 161304Z 24005KT 1 1/4SM BR OVC002 19/18 A2985 RMK AO2 T01940183
KCMA Gnd/Twr/App Camarillo Airport (Camarillo, US-CA)
kcmaNearest METAR:
KCMA 161255Z 28006KT 10SM OVC008 16/12 A2989 RMK AO2 SLP128 T01560122
KCOU CTAF/Gnd/App Columbia Regional Airport (Columbia, US-MO)
kcouNearest METAR:
KCOU 161317Z 21013G23KT 10SM -RA SCT016 BKN110 21/18 A2992 RMK AO2 LTG DSNT NW-E TSE17 TS NW MOV E P0002 T02060183 $
KDCU CTAF Pryor Field Regional Airport (Decatur, US-AL)
kdcuNearest METAR:
KDCU 161253Z AUTO 18008KT 10SM CLR 24/21 A3006 RMK AO2 LTG DSNT N SLP170 T02440206
Regional App (Meacham South) Fort Worth Meacham International Airport (Fort Worth, US-TX)
kftwNearest METAR:
KFTW 161310Z 13009KT 10SM OVC005 19/19 A2989 RMK AO2 T01940189
KDPA Del/Gnd/Twr/Misc Dupage Airport (Chicago, US-IL)
kdpaNearest METAR:
KDPA 161252Z 36009KT 2 1/2SM BR OVC003 16/14 A2979 RMK AO2 SLP084 T01560139 $
KDSM Gnd/Twr/App Des Moines International Airport (Des Moines, US-IA)
kdsmNearest METAR:
KDSM 161254Z 03007KT 9SM OVC004 17/16 A2985 RMK AO2 SLP103 T01720161 $
KDVO CTAF Gnoss Field Airport (Novato, US-CA)
kdvoNearest METAR:
KDVO 161315Z AUTO 29003KT 10SM OVC008 12/11 A2992 RMK AO2
KENW Ground/Tower Kenosha Regional Airport (Kenosha, US-WI)
kenwNearest METAR:
KENW 161317Z 03009KT 2SM BR OVC003 12/12 A2982 RMK AO2 P0001 T01220122 $
F44 CTAF Athens Municipal Airport (Athens, US-TX)
kf44Nearest METAR:
KF44 161315Z AUTO 02010G14KT 2SM +TSRA BKN007 BKN017 OVC039 19/19 A2996 RMK AO2 VIS 1 1/4V4 LTG DSNT ALQS P0015
KFKA CTAF Fillmore County Airport (Preston, US-MN)
kfkaNearest METAR:
KFKA 161319Z AUTO 08007KT 7SM OVC005 11/10 A2990 RMK AO2 T01100098
KFLL Ground/Tower Fort Lauderdale/Hollywood International Airport (Fort Lauderdale, US-FL)
kfllNearest METAR:
KFLL 161253Z 24004KT 9SM SCT021CB BKN060 BKN120 26/21 A3003 RMK AO2 WSHFT 1159 LTG DSNT NW TSB03E27 SLP168 CB OHD-ALQDS MOV NW VCSH E-SE T02560211
Palm Beach App/Dep St Lucie County International Airport (Fort Pierce, US-FL)
ksuaNearest METAR:
KSUA 161330Z 14010KT 1SM TSRA OVC010 24/22 A3009
KFSD Twr/App/Dep/ZMP Joe Foss Field Airport (Sioux Falls, US-SD)
kfsdNearest METAR:
KFSD 161256Z 19003KT 1/16SM FG VV002 17/16 A2991 RMK AO2 TWR VIS M1/4 SLP125 T01670161 RVRNO
KGGG Gnd/Twr East Texas Regional Airport (Longview, US-TX)
kgggNearest METAR:
KGGG 161253Z 35007KT 3SM +RA BR BKN030 OVC041 20/19 A2996 RMK AO2 LTG DSNT SW-NW SLP141 P0049 T02000194
KGUS Del/Gnd/Twr/App Grissom Air Reserve Base (Peru, US-IN)
kgusNearest METAR:
KGUS 161256Z AUTO 25015KT 10SM OVC008 19/19 A2979 RMK AO2 SLP087 T01910191 $
KHNB CTAF Huntingburg Airport (Huntingburg, US-IN)
khnbNearest METAR:
KHNB 161256Z AUTO 17007KT 10SM FEW045 BKN060 OVC090 20/19 A2989 RMK AO2 LTG DSNT NW SLP117 T02000194
KHSV Gnd/Twr/App/Dep Huntsville International Airport-Carl T Jones Field (Huntsville, US-AL)
khsvNearest METAR:
KHSV 161253Z 18006KT 10SM FEW015 FEW070 BKN250 25/21 A3006 RMK AO2 LTG DSNT NW SLP170 CB DSNT NW T02500211 $
KHTS Approach (North) Tri-State Airport/Milton J. Ferguson Field (Huntington, US-WV)
khtsNearest METAR:
KHTS 161251Z 21009KT 10SM FEW036 FEW070 BKN110 23/17 A2994 RMK AO2 LTG DSNT N SLP129 T02330172
KHUF Gnd/Twr/App Terre Haute International Airport-Hulman Field (Terre Haute, US-IN)
khufNearest METAR:
KHUF 161318Z 20006KT 10SM FEW023 BKN028 OVC033 20/19 A2986 RMK AO2 LTG DSNT S T02000189
KHWD Ground/Tower Hayward Executive Airport (Hayward, US-CA)
khwdNearest METAR:
KHWD 161254Z AUTO 28006KT 10SM OVC008 13/11 A2992 RMK AO2 SLP140 T01280106
KIKV Del/CTAF Ankeny Regional Airport (Ankeny, US-IA)
kikvNearest METAR:
KIKV 161315Z AUTO 06005KT 3SM BR OVC003 16/16 A2987 RMK AO2
KJWY/2TS6 CTAF/Unicom Eagle's Nest Estates Airport (Midlothian, US-TX)
kjwyNearest METAR:
KJWY 161315Z AUTO 08006KT 5SM BR OVC004 19/19 A2994 RMK AO2 T01890189
KJXN Del/Gnd/Twr/App Jackson County Airport-Reynolds Field (Jackson, US-MI)
kjxnNearest METAR:
KJXN 161256Z 02006KT 3SM -RA BR OVC003 15/14 A2983 RMK AO2 SLP100 P0019 T01500144 $
KLVK Ground/Tower Livermore Municipal Airport (Livermore, US-CA)
klvkNearest METAR:
KLVK 161253Z AUTO 29007KT 10SM OVC008 12/11 A2991 RMK AO2 SLP126 T01220106
KMCC CTAF/Del/Gnd/Twr McClellan Airfield (Sacramento, US-CA)
kmccNearest METAR:
KMCC 161320Z AUTO 15008KT 8SM OVC008 13/12 A2989 RMK AO2
KMDW Tower #1 Chicago Midway International Airport (Chicago, US-IL)
kmdwNearest METAR:
KMDW 161320Z 35004KT 2SM BR OVC004 16/15 A2979 RMK AO2 T01560150 $
KMHR Ground/Tower Sacramento Mather Airport (Sacramento, US-CA)
kmhrNearest METAR:
KMHR 161245Z 19005KT 10SM OVC006 13/12 A2986
KMIA Departure (North) Miami International Airport (Miami, US-FL)
kmiaNearest METAR:
KMIA 161253Z 03003KT 10SM SCT025 BKN090 BKN150 BKN250 26/20 A3003 RMK AO2 LTG DSNT N SLP168 CB DSNT ALQDS MOV NW T02610200
KMKE Approach/Departure General Mitchell International Airport (Milwaukee, US-WI)
kmkeNearest METAR:
KMKE 161252Z 02011G17KT 1 1/4SM -RA BR OVC003 11/10 A2985 RMK AO2 SFC VIS 2 1/2 SLP110 P0001 T01110100 $
KMLI Del/Gnd/Twr/App Quad City International Airport (Moline, US-IL)
kmliNearest METAR:
KMLI 161313Z 32003KT 9SM OVC009 20/18 A2979 RMK AO2 T02000178
KMQY AWOS Smyrna Airport (Smyrna, US-TN)
kmqyNearest METAR:
KMQY 161256Z 20006KT 10SM BKN080 OVC095 23/20 A3002 RMK AO2 LTG DSNT W-N RAE03 SLP051 P0000 T02330200
KMRY Del/Gnd/Twr Monterey Peninsula Airport (Monterey, US-CA)
kmryNearest METAR:
KMRY 161254Z 00000KT 5SM BR OVC007 12/10 A2994 RMK AO2 SLP151 T01170100
KMSN Twr/App Dane County Regional Airport-Truax Field (Madison, US-WI)
kmsnNearest METAR:
KMSN 161253Z 02008KT 3SM -DZ BR OVC005 12/11 A2985 RMK AO2 SFC VIS 4 SLP108 P0000 T01220111
KMTC Area CTAF Ray Community Airport (Ray, US-MI)
kvllNearest METAR:
KVLL 161320Z AUTO 02003KT 4SM RA OVC009 13/11 A2987 RMK AO2 T01280108
KMWA Gnd/Twr/CTAF Williamson County Regional Airport (Marion, US-IL)
kmwaNearest METAR:
KMWA 161245Z 13011KT 10SM SCT070 25/22 A2987 RMK LTG DSNT NE
KMWC Gnd/Twr/App Lawrence J Timmerman Airport (Milwaukee, US-WI)
kmwcNearest METAR:
KMWC 161245Z 03007KT 3SM BR OVC003 11/09 A2986
KOAK Del/Gnd/Twr Metropolitan Oakland International Airport (Oakland, US-CA)
koakNearest METAR:
KOAK 161253Z 27009KT 10SM OVC009 13/10 A2993 RMK AO2 SLP133 T01330100
NORCAL Departure (KSFO/KOAK) Metropolitan Oakland International Airport (Oakland, US-CA)
ksfoNearest METAR:
KSFO 161256Z 23008KT 9SM OVC008 12/10 A2992 RMK AO2 SLP133 T01220100
KOFF Gnd/Twr/App/ZMP Offutt Air Force Base (Omaha, US-NE)
koffNearest METAR:
KOFF 161256Z 31008KT 7SM SCT150 21/13 A2986 RMK AO2A SLP095 RVRNO $
KORD Ground Chicago O'Hare International Airport (Chicago, US-IL)
kordNearest METAR:
KORD 161300Z 34007KT 3/4SM R10L/3000VP6000FT BR OVC002 14/14 A2978 RMK AO2 T01440144 $
KOTH ATIS/AWOS Southwest Oregon Regional Airport (North Bend, US-OR)
kothNearest METAR:
KOTH 161256Z AUTO 35011KT 10SM OVC004 10/09 A3008 RMK AO2 SLP187 T01000094
KOTM Del/Twr/App/Center Ottumwa Regional Airport (Ottumwa, US-IA)
kotmNearest METAR:
KOTM 161303Z AUTO 01006KT 4SM BR OVC002 17/17 A2985 RMK AO2 T01720167 $
KPCW CTAF Erie-Ottawa International Airport (Port Clinton, US-OH)
kpcwNearest METAR:
KPCW 161315Z AUTO 10005KT 1 1/2SM -RA OVC003 18/17 A2982 RMK AO2
KPIA Approach/Departure General Downing - Peoria International Airport (Peoria, US-IL)
kpiaNearest METAR:
KPIA 161254Z 00000KT 10SM OVC007 19/18 A2981 RMK AO2 SLP091 T01940178
KPKB Gnd/Twr/Unicom Mid-Ohio Valley Regional Airport (Parkersburg, US-WV)
kpkbNearest METAR:
KPKB 161326Z 24004KT 6SM VCTS -RA BR OVC038 20/18 A2995 RMK AO2 LTG DSNT SW RAB1258E10B14 TSB11E26 P0002 T02000183
KPLU Del/CTAF/App Pierce County Airport - Thun Field (Puyallup, US-WA)
kpluNearest METAR:
KPLU 161315Z AUTO 00000KT 10SM OVC004 12/12 A3009 RMK AO2
KPMP Tower Pompano Beach Airpark (Pompano Beach, US-FL)
kpmpNearest METAR:
KPMP 161318Z 13009G20KT 1/4SM +RA FG BKN012 OVC025 24/22 A3007 RMK AO2 RAB06 P0077 T02440222
KPSM Gnd/Twr/App/GCA Portsmouth International Airport at Pease (Portsmouth, US-NH)
kpsmNearest METAR:
KPSM 161256Z 22004KT 10SM FEW060 BKN100 OVC130 19/17 A2986 RMK AO2A RAB15E55 SLP114 P0000 T01880169 RVRNO $
KPTK App/Dep Oakland County International Airport (Pontiac, US-MI)
kptkNearest METAR:
KPTK 161253Z 02003KT 7SM -RA OVC008 13/10 A2984 RMK AO2 RAB12 SLP103 P0003 T01280100
KPWK Del/Gnd/Tower Chicago Executive Airport (Chicago/Prospect Heights/Wheeling, US-IL)
kpwkNearest METAR:
KPWK 161252Z 36006KT 1/2SM FG OVC002 14/13 A2981 RMK AO2 SLP094 T01390128
KPWT CTAF Bremerton National Airport (Bremerton, US-WA)
kpwtNearest METAR:
KPWT 161256Z AUTO 00000KT 1/4SM FG OVC003 11/11 A3008 RMK AO2 SLP202 T01060106
KRAC CTAF John H Batten Airport (Racine, US-WI)
kracNearest METAR:
KRAC 161321Z AUTO 02014KT 2 1/2SM BR OVC003 11/09 A2984 RMK AO2 RAE07 P0000 T01060094
KRFD Gnd/Twr/App Chicago/Rockford International Airport (Rockford, US-IL)
krfdNearest METAR:
KRFD 161254Z 04008KT 3SM R01/P6000FT BR OVC005 16/15 A2983 RMK RAE22 SLP098 P0001 T01560150
KSAC Tower Sacramento Executive Airport (Sacramento, US-CA)
ksacNearest METAR:
KSAC 161253Z VRB05KT 10SM OVC006 12/11 A2987 RMK AO2 SLP114 T01170111
KSBA Tower Santa Barbara Municipal Airport (Santa Barbara, US-CA)
ksbaNearest METAR:
KSBA 161253Z 02003KT 6SM BR OVC005 14/13 A2988 RMK AO2 SLP119 T01390133
KSBP App/Dep San Luis County Regional Airport (San Luis Obispo, US-CA)
ksbpNearest METAR:
KSBP 161256Z 32005KT 7SM OVC008 12/11 A2993 RMK AO2 SLP136 T01170106 $
KSEF CTAF Sebring Regional Airport (Sebring, US-FL)
ksefNearest METAR:
KSEF 161315Z AUTO 14006KT 10SM VCTS CLR 28/24 A3006 RMK AO2 LTG DSNT E T02830243
KSTS Tower Charles M. Schulz - Sonoma County Airport (Santa Rosa, US-CA)
kstsNearest METAR:
KSTS 161301Z AUTO 00000KT 8SM OVC004 11/11 A2990 RMK AO2 T01110106
KSYR Tower/Approach Syracuse Hancock International Airport (Syracuse, US-NY)
ksyrNearest METAR:
KSYR 161254Z 05003KT 4SM -RA BR OVC003 17/15 A2985 RMK AO2 SLP103 P0007 T01670150
KTOL Del/Gnd/Twr/App Toledo Express Airport (Toledo, US-OH)
ktolNearest METAR:
KTOL 161304Z 07005KT 2 1/2SM -RA OVC003 19/16 A2981 RMK AO2 P0001 T01890161 $
KUGN Tower Waukegan Regional Airport (Chicago/Waukegan, US-IL)
kugnNearest METAR:
KUGN 161255Z 03008KT 1SM BR OVC002 13/12 A2981 RMK AO2 RAE16 SLP092 P0001 T01280122
KVPZ CTAF/Clearance/App Porter County Regional Airport (Valparaiso, US-IN)
kvpzNearest METAR:
KVPZ 161256Z AUTO 3SM BR SCT003 OVC008 17/15 A2978 RMK AO2 SLP083 T01670150 $
KWVI CTAF/NORCAL App Watsonville Municipal Airport (Watsonville, US-CA)
kwviNearest METAR:
KWVI 161253Z AUTO 23003KT 9SM OVC007 13/11 A2993 RMK AO2 CIG 005V009 SLP135 T01280111 $
LHBP Twr/Info Budapest Ferihegy International Airport (Budapest, Hungary)
WX MAP UNAVAILABLENearest METAR:
LHBP 161300Z 35009KT 320V020 9999 -SHRA VCTS FEW047CB FEW060 SCT090 25/23 Q1013 RETS TEMPO TSRA
UNNT Gnd/Twr/App/Radar/Misc Tolmachevo Airport (Novosibirsk, Russia)
WX MAP UNAVAILABLENearest METAR:
UNNT 161300Z 28003MPS 9999 FEW010 OVC033CB 15/13 Q1000 R25/290155 R16/290155 NOSIG RMK QFE740/0987
URKK Gnd/Twr/App Pashkovskiy General Airport (Krasnodar, Russia)
WX MAP UNAVAILABLENearest METAR:
URKK 161300Z 12005MPS 9999 SCT///CB 33/18 Q1007 R05R/CLRD70 TEMPO -TSRA SCT020CB RMK QFE752
USTR Gnd/Twr/App Roshchino International Airport (Tyumen, Russia)
WX MAP UNAVAILABLENearest METAR:
USTR 161300Z 24004MPS 9999 FEW009 BKN020CB 12/10 Q1002 R21/290060 R30/290060 TEMPO 30015MPS 2100 -TSRAGR VV011 RMK QFE742/0990
KMDQ CTAF Huntsville Executive Airport / Tom Sharp Jr Field (Huntsville, US-AL)
kmdqNearest METAR:
KMDQ 161315Z AUTO 21011KT 10SM CLR 26/21 A3007 RMK A02 LTG DSNT N AND NE T02580211
KHUA Tower Redstone Army Airfield (Huntsville, US-AL)
khuaNearest METAR:
KHUA 161258Z AUTO 20007KT 10SM SCT070 25/21 A3005 RMK AO2 LTG DSNT N SLP170 T02480206